sensor_id;sensor_type;location;lat;lon;timestamp;P1;durP1;ratioP1;P2;durP2;ratioP2
64686;SDS011;51113;53.646;-113.674;2023-09-18T00:01:33;122.25;;;76.72;;
64686;SDS011;51113;53.646;-113.674;2023-09-18T00:04:02;118.45;;;76.25;;
64686;SDS011;51113;53.646;-113.674;2023-09-18T00:06:32;131.88;;;76.78;;
64686;SDS011;51113;53.646;-113.674;2023-09-18T00:09:01;125.88;;;78.35;;
64686;SDS011;51113;53.646;-113.674;2023-09-18T00:11:30;126.45;;;77.20;;
64686;SDS011;51113;53.646;-113.674;2023-09-18T00:13:58;132.70;;;78.82;;
64686;SDS011;51113;53.646;-113.674;2023-09-18T00:16:27;126.10;;;78.00;;
64686;SDS011;51113;53.646;-113.674;2023-09-18T00:19:09;128.95;;;79.10;;
64686;SDS011;51113;53.646;-113.674;2023-09-18T00:21:39;135.80;;;77.70;;
64686;SDS011;51113;53.646;-113.674;2023-09-18T00:24:08;126.28;;;77.25;;
64686;SDS011;51113;53.646;-113.674;2023-09-18T00:26:36;125.97;;;77.35;;
64686;SDS011;51113;53.646;-113.674;2023-09-18T00:29:05;126.30;;;75.43;;
64686;SDS011;51113;53.646;-113.674;2023-09-18T00:31:34;127.65;;;77.28;;
64686;SDS011;51113;53.646;-113.674;2023-09-18T00:34:02;122.25;;;76.20;;
64686;SDS011;51113;53.646;-113.674;2023-09-18T00:36:31;130.27;;;76.18;;
64686;SDS011;51113;53.646;-113.674;2023-09-18T00:38:59;126.85;;;77.75;;
64686;SDS011;51113;53.646;-113.674;2023-09-18T00:41:28;124.78;;;78.65;;
64686;SDS011;51113;53.646;-113.674;2023-09-18T00:43:57;138.63;;;78.20;;
64686;SDS011;51113;53.646;-113.674;2023-09-18T00:46:26;118.15;;;76.28;;
64686;SDS011;51113;53.646;-113.674;2023-09-18T00:48:55;121.05;;;76.15;;
64686;SDS011;51113;53.646;-113.674;2023-09-18T00:51:24;128.43;;;77.97;;
64686;SDS011;51113;53.646;-113.674;2023-09-18T00:53:52;128.27;;;78.32;;
64686;SDS011;51113;53.646;-113.674;2023-09-18T00:56:20;129.00;;;78.00;;
64686;SDS011;51113;53.646;-113.674;2023-09-18T00:58:49;132.02;;;81.35;;
64686;SDS011;51113;53.646;-113.674;2023-09-18T01:01:19;127.63;;;78.50;;
64686;SDS011;51113;53.646;-113.674;2023-09-18T01:03:51;132.35;;;82.72;;
64686;SDS011;51113;53.646;-113.674;2023-09-18T01:06:25;141.98;;;84.25;;
64686;SDS011;51113;53.646;-113.674;2023-09-18T01:08:58;138.13;;;84.07;;
64686;SDS011;51113;53.646;-113.674;2023-09-18T01:11:31;142.50;;;83.78;;
64686;SDS011;51113;53.646;-113.674;2023-09-18T01:17:09;145.27;;;81.63;;
64686;SDS011;51113;53.646;-113.674;2023-09-18T01:19:42;142.60;;;82.20;;
64686;SDS011;51113;53.646;-113.674;2023-09-18T01:22:17;139.33;;;82.60;;
64686;SDS011;51113;53.646;-113.674;2023-09-18T01:24:47;136.05;;;82.38;;
64686;SDS011;51113;53.646;-113.674;2023-09-18T01:27:17;141.52;;;81.22;;
64686;SDS011;51113;53.646;-113.674;2023-09-18T01:29:46;133.10;;;78.63;;
64686;SDS011;51113;53.646;-113.674;2023-09-18T01:32:15;145.20;;;80.07;;
64686;SDS011;51113;53.646;-113.674;2023-09-18T01:34:48;128.18;;;79.05;;
64686;SDS011;51113;53.646;-113.674;2023-09-18T01:37:19;132.63;;;79.35;;
64686;SDS011;51113;53.646;-113.674;2023-09-18T01:39:51;138.80;;;79.70;;
64686;SDS011;51113;53.646;-113.674;2023-09-18T01:42:21;142.52;;;80.22;;
64686;SDS011;51113;53.646;-113.674;2023-09-18T01:44:51;138.18;;;78.13;;
64686;SDS011;51113;53.646;-113.674;2023-09-18T01:47:21;136.32;;;78.55;;
64686;SDS011;51113;53.646;-113.674;2023-09-18T01:49:54;132.35;;;77.50;;
64686;SDS011;51113;53.646;-113.674;2023-09-18T01:52:23;137.60;;;79.13;;
64686;SDS011;51113;53.646;-113.674;2023-09-18T01:54:52;137.43;;;79.28;;
64686;SDS011;51113;53.646;-113.674;2023-09-18T01:57:21;147.65;;;78.97;;
64686;SDS011;51113;53.646;-113.674;2023-09-18T01:59:49;135.95;;;78.13;;
64686;SDS011;51113;53.646;-113.674;2023-09-18T02:02:18;149.05;;;79.95;;
64686;SDS011;51113;53.646;-113.674;2023-09-18T02:05:07;136.77;;;79.75;;
64686;SDS011;51113;53.646;-113.674;2023-09-18T02:07:36;135.05;;;75.95;;
64686;SDS011;51113;53.646;-113.674;2023-09-18T02:10:05;143.10;;;78.30;;
64686;SDS011;51113;53.646;-113.674;2023-09-18T02:12:34;143.10;;;78.65;;
64686;SDS011;51113;53.646;-113.674;2023-09-18T02:15:02;143.88;;;78.93;;
64686;SDS011;51113;53.646;-113.674;2023-09-18T02:17:34;139.13;;;78.22;;
64686;SDS011;51113;53.646;-113.674;2023-09-18T02:20:03;140.50;;;77.85;;
64686;SDS011;51113;53.646;-113.674;2023-09-18T02:22:39;136.73;;;77.95;;
64686;SDS011;51113;53.646;-113.674;2023-09-18T02:25:07;139.80;;;78.88;;
64686;SDS011;51113;53.646;-113.674;2023-09-18T02:27:36;142.82;;;78.53;;
64686;SDS011;51113;53.646;-113.674;2023-09-18T02:30:05;141.07;;;78.35;;
64686;SDS011;51113;53.646;-113.674;2023-09-18T02:32:34;133.95;;;76.85;;
64686;SDS011;51113;53.646;-113.674;2023-09-18T02:35:05;138.77;;;76.47;;
64686;SDS011;51113;53.646;-113.674;2023-09-18T02:37:35;137.13;;;79.55;;
64686;SDS011;51113;53.646;-113.674;2023-09-18T02:40:03;142.68;;;79.97;;
64686;SDS011;51113;53.646;-113.674;2023-09-18T02:42:33;145.95;;;81.85;;
64686;SDS011;51113;53.646;-113.674;2023-09-18T02:45:01;146.60;;;79.18;;
64686;SDS011;51113;53.646;-113.674;2023-09-18T02:47:30;142.38;;;79.95;;
64686;SDS011;51113;53.646;-113.674;2023-09-18T02:49:59;149.45;;;78.57;;
64686;SDS011;51113;53.646;-113.674;2023-09-18T02:52:27;141.25;;;77.70;;
64686;SDS011;51113;53.646;-113.674;2023-09-18T02:54:56;138.15;;;79.95;;
64686;SDS011;51113;53.646;-113.674;2023-09-18T02:57:25;145.82;;;79.18;;
64686;SDS011;51113;53.646;-113.674;2023-09-18T02:59:54;147.15;;;79.53;;
64686;SDS011;51113;53.646;-113.674;2023-09-18T03:02:22;146.23;;;80.07;;
64686;SDS011;51113;53.646;-113.674;2023-09-18T03:04:50;154.45;;;80.70;;
64686;SDS011;51113;53.646;-113.674;2023-09-18T03:07:19;144.90;;;80.93;;
64686;SDS011;51113;53.646;-113.674;2023-09-18T03:09:48;146.75;;;81.90;;
64686;SDS011;51113;53.646;-113.674;2023-09-18T03:12:17;141.02;;;79.18;;
64686;SDS011;51113;53.646;-113.674;2023-09-18T03:14:45;161.52;;;80.47;;
64686;SDS011;51113;53.646;-113.674;2023-09-18T03:17:14;142.05;;;79.25;;
64686;SDS011;51113;53.646;-113.674;2023-09-18T03:19:43;154.15;;;80.68;;
64686;SDS011;51113;53.646;-113.674;2023-09-18T03:22:15;150.75;;;80.45;;
64686;SDS011;51113;53.646;-113.674;2023-09-18T03:24:44;148.50;;;78.03;;
64686;SDS011;51113;53.646;-113.674;2023-09-18T03:27:12;148.43;;;78.03;;
64686;SDS011;51113;53.646;-113.674;2023-09-18T03:29:41;149.05;;;78.93;;
64686;SDS011;51113;53.646;-113.674;2023-09-18T03:32:09;151.02;;;78.75;;
64686;SDS011;51113;53.646;-113.674;2023-09-18T03:34:39;144.27;;;79.75;;
64686;SDS011;51113;53.646;-113.674;2023-09-18T03:37:08;144.80;;;80.93;;
64686;SDS011;51113;53.646;-113.674;2023-09-18T03:39:37;146.90;;;81.68;;
64686;SDS011;51113;53.646;-113.674;2023-09-18T03:42:06;151.00;;;80.28;;
64686;SDS011;51113;53.646;-113.674;2023-09-18T03:44:35;162.55;;;80.47;;
64686;SDS011;51113;53.646;-113.674;2023-09-18T03:47:04;147.43;;;82.15;;
64686;SDS011;51113;53.646;-113.674;2023-09-18T03:49:33;151.85;;;81.03;;
64686;SDS011;51113;53.646;-113.674;2023-09-18T03:52:01;159.18;;;82.70;;
64686;SDS011;51113;53.646;-113.674;2023-09-18T03:54:30;163.07;;;82.18;;
64686;SDS011;51113;53.646;-113.674;2023-09-18T03:56:59;153.82;;;82.90;;
64686;SDS011;51113;53.646;-113.674;2023-09-18T03:59:27;161.40;;;81.22;;
64686;SDS011;51113;53.646;-113.674;2023-09-18T04:01:56;163.00;;;83.82;;
64686;SDS011;51113;53.646;-113.674;2023-09-18T04:04:24;165.75;;;81.20;;
64686;SDS011;51113;53.646;-113.674;2023-09-18T04:06:53;149.52;;;81.97;;
64686;SDS011;51113;53.646;-113.674;2023-09-18T04:09:22;162.40;;;82.05;;
64686;SDS011;51113;53.646;-113.674;2023-09-18T04:11:50;165.73;;;84.28;;
64686;SDS011;51113;53.646;-113.674;2023-09-18T04:14:20;160.52;;;83.60;;
64686;SDS011;51113;53.646;-113.674;2023-09-18T04:16:48;156.48;;;82.50;;
64686;SDS011;51113;53.646;-113.674;2023-09-18T04:19:19;154.18;;;81.82;;
64686;SDS011;51113;53.646;-113.674;2023-09-18T04:21:48;157.15;;;85.22;;
64686;SDS011;51113;53.646;-113.674;2023-09-18T04:24:16;152.27;;;82.65;;
64686;SDS011;51113;53.646;-113.674;2023-09-18T04:26:45;163.32;;;82.90;;
64686;SDS011;51113;53.646;-113.674;2023-09-18T04:29:13;168.27;;;83.07;;
64686;SDS011;51113;53.646;-113.674;2023-09-18T04:31:41;151.07;;;83.43;;
64686;SDS011;51113;53.646;-113.674;2023-09-18T04:34:10;158.07;;;84.35;;
64686;SDS011;51113;53.646;-113.674;2023-09-18T04:36:39;152.93;;;82.10;;
64686;SDS011;51113;53.646;-113.674;2023-09-18T04:39:08;157.23;;;84.63;;
64686;SDS011;51113;53.646;-113.674;2023-09-18T04:41:37;165.05;;;83.75;;
64686;SDS011;51113;53.646;-113.674;2023-09-18T04:44:05;157.60;;;83.38;;
64686;SDS011;51113;53.646;-113.674;2023-09-18T04:46:35;163.57;;;84.47;;
64686;SDS011;51113;53.646;-113.674;2023-09-18T04:49:03;161.18;;;84.78;;
64686;SDS011;51113;53.646;-113.674;2023-09-18T04:51:32;172.82;;;86.63;;
64686;SDS011;51113;53.646;-113.674;2023-09-18T04:54:00;165.50;;;85.68;;
64686;SDS011;51113;53.646;-113.674;2023-09-18T04:56:29;159.05;;;86.10;;
64686;SDS011;51113;53.646;-113.674;2023-09-18T04:58:58;165.82;;;85.35;;
64686;SDS011;51113;53.646;-113.674;2023-09-18T05:01:26;161.98;;;85.63;;
64686;SDS011;51113;53.646;-113.674;2023-09-18T05:03:55;175.13;;;88.18;;
64686;SDS011;51113;53.646;-113.674;2023-09-18T05:06:24;171.13;;;87.18;;
64686;SDS011;51113;53.646;-113.674;2023-09-18T05:08:53;180.02;;;87.05;;
64686;SDS011;51113;53.646;-113.674;2023-09-18T05:11:21;171.00;;;88.20;;
64686;SDS011;51113;53.646;-113.674;2023-09-18T05:13:51;160.60;;;86.72;;
64686;SDS011;51113;53.646;-113.674;2023-09-18T05:16:20;168.43;;;88.10;;
64686;SDS011;51113;53.646;-113.674;2023-09-18T05:18:49;169.18;;;89.00;;
64686;SDS011;51113;53.646;-113.674;2023-09-18T05:21:18;176.27;;;89.82;;
64686;SDS011;51113;53.646;-113.674;2023-09-18T05:23:52;169.40;;;86.45;;
64686;SDS011;51113;53.646;-113.674;2023-09-18T05:26:21;170.93;;;86.45;;
64686;SDS011;51113;53.646;-113.674;2023-09-18T05:28:52;174.13;;;88.70;;
64686;SDS011;51113;53.646;-113.674;2023-09-18T05:31:22;168.98;;;91.18;;
64686;SDS011;51113;53.646;-113.674;2023-09-18T05:33:52;176.52;;;89.18;;
64686;SDS011;51113;53.646;-113.674;2023-09-18T05:36:20;171.63;;;88.32;;
64686;SDS011;51113;53.646;-113.674;2023-09-18T05:38:49;176.98;;;88.32;;
64686;SDS011;51113;53.646;-113.674;2023-09-18T05:41:18;177.30;;;89.72;;
64686;SDS011;51113;53.646;-113.674;2023-09-18T05:43:46;176.98;;;89.00;;
64686;SDS011;51113;53.646;-113.674;2023-09-18T05:46:15;170.02;;;89.97;;
64686;SDS011;51113;53.646;-113.674;2023-09-18T05:48:43;180.45;;;90.35;;
64686;SDS011;51113;53.646;-113.674;2023-09-18T05:51:12;170.07;;;91.45;;
64686;SDS011;51113;53.646;-113.674;2023-09-18T05:53:41;189.93;;;89.07;;
64686;SDS011;51113;53.646;-113.674;2023-09-18T05:56:09;174.07;;;88.75;;
64686;SDS011;51113;53.646;-113.674;2023-09-18T05:58:38;174.80;;;90.05;;
64686;SDS011;51113;53.646;-113.674;2023-09-18T06:01:07;168.45;;;87.68;;
64686;SDS011;51113;53.646;-113.674;2023-09-18T06:03:36;169.18;;;88.57;;
64686;SDS011;51113;53.646;-113.674;2023-09-18T06:06:05;164.05;;;84.95;;
64686;SDS011;51113;53.646;-113.674;2023-09-18T06:08:33;177.32;;;87.35;;
64686;SDS011;51113;53.646;-113.674;2023-09-18T06:11:02;176.77;;;86.63;;
64686;SDS011;51113;53.646;-113.674;2023-09-18T06:13:31;174.80;;;88.20;;
64686;SDS011;51113;53.646;-113.674;2023-09-18T06:16:02;176.70;;;88.05;;
64686;SDS011;51113;53.646;-113.674;2023-09-18T06:18:35;164.65;;;85.65;;
64686;SDS011;51113;53.646;-113.674;2023-09-18T06:21:06;171.77;;;87.70;;
64686;SDS011;51113;53.646;-113.674;2023-09-18T06:23:34;177.68;;;87.10;;
64686;SDS011;51113;53.646;-113.674;2023-09-18T06:26:03;183.02;;;88.15;;
64686;SDS011;51113;53.646;-113.674;2023-09-18T06:28:32;176.30;;;89.70;;
64686;SDS011;51113;53.646;-113.674;2023-09-18T06:31:01;164.95;;;84.18;;
64686;SDS011;51113;53.646;-113.674;2023-09-18T06:33:29;168.93;;;87.38;;
64686;SDS011;51113;53.646;-113.674;2023-09-18T06:35:58;170.90;;;84.32;;
64686;SDS011;51113;53.646;-113.674;2023-09-18T06:38:27;169.95;;;86.82;;
64686;SDS011;51113;53.646;-113.674;2023-09-18T06:40:55;165.25;;;85.43;;
64686;SDS011;51113;53.646;-113.674;2023-09-18T06:43:24;180.25;;;87.75;;
64686;SDS011;51113;53.646;-113.674;2023-09-18T06:45:52;173.15;;;86.03;;
64686;SDS011;51113;53.646;-113.674;2023-09-18T06:48:21;170.07;;;86.28;;
64686;SDS011;51113;53.646;-113.674;2023-09-18T06:50:50;168.90;;;85.47;;
64686;SDS011;51113;53.646;-113.674;2023-09-18T06:53:19;171.70;;;88.15;;
64686;SDS011;51113;53.646;-113.674;2023-09-18T06:55:47;182.30;;;90.22;;
64686;SDS011;51113;53.646;-113.674;2023-09-18T06:58:16;183.65;;;90.32;;
64686;SDS011;51113;53.646;-113.674;2023-09-18T07:00:44;182.13;;;88.35;;
64686;SDS011;51113;53.646;-113.674;2023-09-18T07:03:13;185.40;;;89.35;;
64686;SDS011;51113;53.646;-113.674;2023-09-18T07:05:42;185.63;;;91.78;;
64686;SDS011;51113;53.646;-113.674;2023-09-18T07:08:11;188.27;;;92.07;;
64686;SDS011;51113;53.646;-113.674;2023-09-18T07:10:40;183.13;;;89.68;;
64686;SDS011;51113;53.646;-113.674;2023-09-18T07:13:09;184.75;;;90.72;;
64686;SDS011;51113;53.646;-113.674;2023-09-18T07:15:39;181.00;;;91.82;;
64686;SDS011;51113;53.646;-113.674;2023-09-18T07:18:08;189.48;;;92.05;;
64686;SDS011;51113;53.646;-113.674;2023-09-18T07:20:43;186.85;;;90.07;;
64686;SDS011;51113;53.646;-113.674;2023-09-18T07:23:12;184.50;;;90.90;;
64686;SDS011;51113;53.646;-113.674;2023-09-18T07:25:41;183.38;;;90.57;;
64686;SDS011;51113;53.646;-113.674;2023-09-18T07:28:11;186.00;;;90.85;;
64686;SDS011;51113;53.646;-113.674;2023-09-18T07:30:43;187.32;;;91.10;;
64686;SDS011;51113;53.646;-113.674;2023-09-18T07:33:12;182.57;;;90.47;;
64686;SDS011;51113;53.646;-113.674;2023-09-18T07:35:48;194.32;;;91.90;;
64686;SDS011;51113;53.646;-113.674;2023-09-18T07:38:19;187.00;;;91.63;;
64686;SDS011;51113;53.646;-113.674;2023-09-18T07:40:48;184.75;;;91.13;;
64686;SDS011;51113;53.646;-113.674;2023-09-18T07:43:16;198.15;;;92.72;;
64686;SDS011;51113;53.646;-113.674;2023-09-18T07:45:45;181.32;;;92.65;;
64686;SDS011;51113;53.646;-113.674;2023-09-18T07:48:13;186.95;;;89.53;;
64686;SDS011;51113;53.646;-113.674;2023-09-18T07:50:45;190.57;;;91.43;;
64686;SDS011;51113;53.646;-113.674;2023-09-18T07:53:14;186.55;;;91.43;;
64686;SDS011;51113;53.646;-113.674;2023-09-18T07:55:42;188.77;;;91.07;;
64686;SDS011;51113;53.646;-113.674;2023-09-18T07:58:10;196.35;;;91.57;;
64686;SDS011;51113;53.646;-113.674;2023-09-18T08:00:39;189.88;;;92.88;;
64686;SDS011;51113;53.646;-113.674;2023-09-18T08:03:08;190.80;;;91.28;;
64686;SDS011;51113;53.646;-113.674;2023-09-18T08:05:37;183.88;;;91.95;;
64686;SDS011;51113;53.646;-113.674;2023-09-18T08:08:06;195.73;;;92.60;;
64686;SDS011;51113;53.646;-113.674;2023-09-18T08:10:36;192.35;;;91.03;;
64686;SDS011;51113;53.646;-113.674;2023-09-18T08:13:05;184.73;;;90.15;;
64686;SDS011;51113;53.646;-113.674;2023-09-18T08:15:34;190.65;;;90.20;;
64686;SDS011;51113;53.646;-113.674;2023-09-18T08:18:02;192.98;;;93.72;;
64686;SDS011;51113;53.646;-113.674;2023-09-18T08:20:31;191.80;;;88.82;;
64686;SDS011;51113;53.646;-113.674;2023-09-18T08:23:00;176.57;;;87.50;;
64686;SDS011;51113;53.646;-113.674;2023-09-18T08:25:32;179.15;;;87.82;;
64686;SDS011;51113;53.646;-113.674;2023-09-18T08:28:01;189.77;;;89.70;;
64686;SDS011;51113;53.646;-113.674;2023-09-18T08:30:34;187.45;;;90.00;;
64686;SDS011;51113;53.646;-113.674;2023-09-18T08:33:04;183.48;;;89.47;;
64686;SDS011;51113;53.646;-113.674;2023-09-18T08:35:33;184.90;;;88.72;;
64686;SDS011;51113;53.646;-113.674;2023-09-18T08:38:02;182.18;;;90.18;;
64686;SDS011;51113;53.646;-113.674;2023-09-18T08:40:33;182.82;;;90.35;;
64686;SDS011;51113;53.646;-113.674;2023-09-18T08:43:02;178.52;;;89.47;;
64686;SDS011;51113;53.646;-113.674;2023-09-18T08:48:06;185.00;;;90.50;;
64686;SDS011;51113;53.646;-113.674;2023-09-18T08:50:35;179.90;;;90.22;;
64686;SDS011;51113;53.646;-113.674;2023-09-18T08:53:06;182.88;;;89.53;;
64686;SDS011;51113;53.646;-113.674;2023-09-18T08:55:35;179.18;;;89.13;;
64686;SDS011;51113;53.646;-113.674;2023-09-18T08:58:05;177.27;;;88.93;;
64686;SDS011;51113;53.646;-113.674;2023-09-18T09:00:38;179.80;;;90.57;;
64686;SDS011;51113;53.646;-113.674;2023-09-18T09:03:07;179.88;;;89.65;;
64686;SDS011;51113;53.646;-113.674;2023-09-18T09:05:36;195.00;;;92.35;;
64686;SDS011;51113;53.646;-113.674;2023-09-18T09:08:04;188.57;;;89.10;;
64686;SDS011;51113;53.646;-113.674;2023-09-18T09:10:33;192.23;;;91.20;;
64686;SDS011;51113;53.646;-113.674;2023-09-18T09:13:03;186.50;;;88.53;;
64686;SDS011;51113;53.646;-113.674;2023-09-18T09:15:34;183.68;;;88.53;;
64686;SDS011;51113;53.646;-113.674;2023-09-18T09:18:14;176.10;;;87.43;;
64686;SDS011;51113;53.646;-113.674;2023-09-18T09:21:03;180.23;;;90.45;;
64686;SDS011;51113;53.646;-113.674;2023-09-18T09:23:48;187.02;;;90.40;;
64686;SDS011;51113;53.646;-113.674;2023-09-18T09:26:23;183.05;;;89.63;;
64686;SDS011;51113;53.646;-113.674;2023-09-18T09:28:52;177.20;;;86.45;;
64686;SDS011;51113;53.646;-113.674;2023-09-18T09:31:23;175.38;;;88.55;;
64686;SDS011;51113;53.646;-113.674;2023-09-18T09:33:56;182.32;;;90.07;;
64686;SDS011;51113;53.646;-113.674;2023-09-18T09:36:26;183.88;;;87.75;;
64686;SDS011;51113;53.646;-113.674;2023-09-18T09:38:55;183.43;;;89.95;;
64686;SDS011;51113;53.646;-113.674;2023-09-18T09:41:28;189.25;;;90.03;;
64686;SDS011;51113;53.646;-113.674;2023-09-18T09:44:00;182.43;;;88.57;;
64686;SDS011;51113;53.646;-113.674;2023-09-18T09:46:28;183.43;;;87.25;;
64686;SDS011;51113;53.646;-113.674;2023-09-18T09:48:58;184.65;;;89.07;;
64686;SDS011;51113;53.646;-113.674;2023-09-18T09:51:30;183.75;;;86.05;;
64686;SDS011;51113;53.646;-113.674;2023-09-18T09:54:00;182.27;;;88.20;;
64686;SDS011;51113;53.646;-113.674;2023-09-18T09:56:45;168.90;;;86.40;;
64686;SDS011;51113;53.646;-113.674;2023-09-18T09:59:14;182.52;;;89.03;;
64686;SDS011;51113;53.646;-113.674;2023-09-18T10:01:43;186.30;;;88.00;;
64686;SDS011;51113;53.646;-113.674;2023-09-18T10:04:18;189.68;;;88.35;;
64686;SDS011;51113;53.646;-113.674;2023-09-18T10:06:51;178.68;;;87.30;;
64686;SDS011;51113;53.646;-113.674;2023-09-18T10:09:23;190.13;;;91.40;;
64686;SDS011;51113;53.646;-113.674;2023-09-18T10:11:57;180.23;;;88.93;;
64686;SDS011;51113;53.646;-113.674;2023-09-18T10:14:30;186.07;;;89.30;;
64686;SDS011;51113;53.646;-113.674;2023-09-18T10:17:22;185.20;;;89.35;;
64686;SDS011;51113;53.646;-113.674;2023-09-18T10:19:58;181.40;;;89.35;;
64686;SDS011;51113;53.646;-113.674;2023-09-18T10:22:39;177.90;;;87.07;;
64686;SDS011;51113;53.646;-113.674;2023-09-18T10:25:15;189.85;;;89.30;;
64686;SDS011;51113;53.646;-113.674;2023-09-18T10:27:49;181.88;;;89.00;;
64686;SDS011;51113;53.646;-113.674;2023-09-18T10:30:26;181.75;;;88.85;;
64686;SDS011;51113;53.646;-113.674;2023-09-18T10:32:55;193.23;;;88.22;;
64686;SDS011;51113;53.646;-113.674;2023-09-18T10:35:27;180.48;;;88.38;;
64686;SDS011;51113;53.646;-113.674;2023-09-18T10:37:56;186.80;;;89.15;;
64686;SDS011;51113;53.646;-113.674;2023-09-18T10:40:26;174.68;;;86.97;;
64686;SDS011;51113;53.646;-113.674;2023-09-18T10:42:57;182.60;;;89.22;;
64686;SDS011;51113;53.646;-113.674;2023-09-18T10:45:30;190.53;;;90.57;;
64686;SDS011;51113;53.646;-113.674;2023-09-18T10:47:59;179.50;;;87.65;;
64686;SDS011;51113;53.646;-113.674;2023-09-18T10:50:29;180.38;;;88.35;;
64686;SDS011;51113;53.646;-113.674;2023-09-18T10:52:57;184.48;;;87.88;;
64686;SDS011;51113;53.646;-113.674;2023-09-18T10:55:27;185.65;;;88.43;;
64686;SDS011;51113;53.646;-113.674;2023-09-18T10:57:57;172.50;;;86.20;;
64686;SDS011;51113;53.646;-113.674;2023-09-18T11:00:31;178.63;;;87.35;;
64686;SDS011;51113;53.646;-113.674;2023-09-18T11:03:14;178.68;;;85.18;;
64686;SDS011;51113;53.646;-113.674;2023-09-18T11:05:45;181.95;;;86.45;;
64686;SDS011;51113;53.646;-113.674;2023-09-18T11:08:24;185.55;;;89.18;;
64686;SDS011;51113;53.646;-113.674;2023-09-18T11:11:00;175.57;;;88.03;;
64686;SDS011;51113;53.646;-113.674;2023-09-18T11:13:41;172.88;;;88.32;;
64686;SDS011;51113;53.646;-113.674;2023-09-18T11:16:17;169.65;;;84.93;;
64686;SDS011;51113;53.646;-113.674;2023-09-18T11:19:07;186.70;;;86.32;;
64686;SDS011;51113;53.646;-113.674;2023-09-18T11:21:38;174.90;;;87.28;;
64686;SDS011;51113;53.646;-113.674;2023-09-18T11:24:08;168.20;;;85.93;;
64686;SDS011;51113;53.646;-113.674;2023-09-18T11:26:48;175.52;;;86.95;;
64686;SDS011;51113;53.646;-113.674;2023-09-18T11:29:22;182.38;;;86.75;;
64686;SDS011;51113;53.646;-113.674;2023-09-18T11:31:54;177.45;;;86.68;;
64686;SDS011;51113;53.646;-113.674;2023-09-18T11:34:32;173.63;;;86.38;;
64686;SDS011;51113;53.646;-113.674;2023-09-18T11:37:22;179.27;;;84.53;;
64686;SDS011;51113;53.646;-113.674;2023-09-18T11:39:53;184.85;;;85.18;;
64686;SDS011;51113;53.646;-113.674;2023-09-18T11:42:23;183.98;;;86.72;;
64686;SDS011;51113;53.646;-113.674;2023-09-18T11:44:56;173.25;;;87.03;;
64686;SDS011;51113;53.646;-113.674;2023-09-18T11:47:26;170.73;;;85.40;;
64686;SDS011;51113;53.646;-113.674;2023-09-18T11:49:57;175.50;;;85.85;;
64686;SDS011;51113;53.646;-113.674;2023-09-18T11:52:28;177.90;;;84.60;;
64686;SDS011;51113;53.646;-113.674;2023-09-18T11:54:59;184.55;;;87.07;;
64686;SDS011;51113;53.646;-113.674;2023-09-18T11:57:28;178.70;;;84.82;;
64686;SDS011;51113;53.646;-113.674;2023-09-18T11:59:57;183.57;;;85.93;;
64686;SDS011;51113;53.646;-113.674;2023-09-18T12:02:38;181.30;;;87.28;;
64686;SDS011;51113;53.646;-113.674;2023-09-18T12:05:15;174.82;;;85.53;;
64686;SDS011;51113;53.646;-113.674;2023-09-18T12:07:46;178.43;;;85.93;;
64686;SDS011;51113;53.646;-113.674;2023-09-18T12:10:15;177.63;;;85.32;;
64686;SDS011;51113;53.646;-113.674;2023-09-18T12:12:45;172.43;;;84.78;;
64686;SDS011;51113;53.646;-113.674;2023-09-18T12:15:16;185.30;;;85.18;;
64686;SDS011;51113;53.646;-113.674;2023-09-18T12:17:47;172.80;;;83.85;;
64686;SDS011;51113;53.646;-113.674;2023-09-18T12:20:16;176.57;;;85.68;;
64686;SDS011;51113;53.646;-113.674;2023-09-18T12:22:49;179.73;;;87.35;;
64686;SDS011;51113;53.646;-113.674;2023-09-18T12:25:19;168.80;;;84.57;;
64686;SDS011;51113;53.646;-113.674;2023-09-18T12:27:51;177.20;;;85.55;;
64686;SDS011;51113;53.646;-113.674;2023-09-18T12:30:21;185.48;;;85.95;;
64686;SDS011;51113;53.646;-113.674;2023-09-18T12:32:50;173.02;;;85.40;;
64686;SDS011;51113;53.646;-113.674;2023-09-18T12:35:20;174.95;;;85.68;;
64686;SDS011;51113;53.646;-113.674;2023-09-18T12:37:49;184.05;;;87.25;;
64686;SDS011;51113;53.646;-113.674;2023-09-18T12:40:24;173.40;;;85.28;;
64686;SDS011;51113;53.646;-113.674;2023-09-18T12:43:02;174.10;;;86.97;;
64686;SDS011;51113;53.646;-113.674;2023-09-18T12:45:31;176.38;;;86.80;;
64686;SDS011;51113;53.646;-113.674;2023-09-18T12:48:00;180.02;;;85.75;;
64686;SDS011;51113;53.646;-113.674;2023-09-18T12:50:29;193.30;;;85.80;;
64686;SDS011;51113;53.646;-113.674;2023-09-18T12:55:37;186.98;;;86.35;;
64686;SDS011;51113;53.646;-113.674;2023-09-18T12:58:06;179.93;;;84.95;;
64686;SDS011;51113;53.646;-113.674;2023-09-18T13:00:44;190.13;;;84.27;;
64686;SDS011;51113;53.646;-113.674;2023-09-18T13:03:14;183.63;;;83.55;;
64686;SDS011;51113;53.646;-113.674;2023-09-18T13:05:43;172.05;;;82.60;;
64686;SDS011;51113;53.646;-113.674;2023-09-18T13:08:12;169.10;;;82.65;;
64686;SDS011;51113;53.646;-113.674;2023-09-18T13:10:45;171.27;;;85.45;;
64686;SDS011;51113;53.646;-113.674;2023-09-18T13:13:17;172.80;;;84.80;;
64686;SDS011;51113;53.646;-113.674;2023-09-18T13:15:49;177.43;;;82.25;;
64686;SDS011;51113;53.646;-113.674;2023-09-18T13:18:21;178.23;;;86.43;;
64686;SDS011;51113;53.646;-113.674;2023-09-18T13:20:52;167.30;;;83.28;;
64686;SDS011;51113;53.646;-113.674;2023-09-18T13:23:27;177.07;;;83.03;;
64686;SDS011;51113;53.646;-113.674;2023-09-18T13:26:01;166.63;;;80.97;;
64686;SDS011;51113;53.646;-113.674;2023-09-18T13:28:31;170.13;;;83.28;;
64686;SDS011;51113;53.646;-113.674;2023-09-18T13:31:05;172.63;;;79.07;;
64686;SDS011;51113;53.646;-113.674;2023-09-18T13:33:38;173.98;;;79.90;;
64686;SDS011;51113;53.646;-113.674;2023-09-18T13:36:08;165.73;;;80.30;;
64686;SDS011;51113;53.646;-113.674;2023-09-18T13:38:36;178.25;;;79.50;;
64686;SDS011;51113;53.646;-113.674;2023-09-18T13:41:05;170.95;;;80.35;;
64686;SDS011;51113;53.646;-113.674;2023-09-18T13:43:33;163.13;;;79.15;;
64686;SDS011;51113;53.646;-113.674;2023-09-18T13:46:03;176.95;;;79.03;;
64686;SDS011;51113;53.646;-113.674;2023-09-18T13:48:32;172.85;;;79.78;;
64686;SDS011;51113;53.646;-113.674;2023-09-18T13:51:01;184.10;;;80.35;;
64686;SDS011;51113;53.646;-113.674;2023-09-18T13:53:31;151.90;;;70.93;;
64686;SDS011;51113;53.646;-113.674;2023-09-18T13:56:01;142.63;;;69.05;;
64686;SDS011;51113;53.646;-113.674;2023-09-18T13:58:30;133.77;;;63.95;;
64686;SDS011;51113;53.646;-113.674;2023-09-18T14:00:59;126.22;;;64.40;;